Airfield :
LOGIN :

Register | Disclaimer

   EN    FR    IT 

 










Legend :    VFR   Marginal VFR   IFR   Intensive IFR   Very Intensive IFR
Visi :
Ceiling :
>= 8 km
>= 3000ft
5 to 8 km
1000 to 3000 ft
1500m to 5 km
500 to 1000 ft
800 to 1500m
200 to 500 ft
< 800m
< 200 ft
Symbols :   Thunderstorms  Fog  Heavy snow  Heavy precipitations  Wind > 20 kt
SIGMETs :     Misc.  Thunderstorms  Icing  Turbulence  Mountain Waves  Volcanic Ashes






- Airport Elevation : 74 ft
- IATA code : LRH


LFBH - La Rochelle Ile de Ré

CURRENT METAR :
  • 131430Z AUTO 24006KT 9999 -RA SCT035 BKN044 BKN054 10/06 Q1006 TEMPO 25015G25KT SCT030TCU

EXPIRED METARs :
  • 131400Z AUTO 25004KT 210V280 9999 BKN048 BKN054 BKN064 11/06 Q1007 TEMPO 25015G25KT SCT030TCU
  • 131330Z AUTO 26004KT 9999 FEW020 SCT040 OVC046 10/06 Q1007 TEMPO 25015G25KT SCT030TCU
  • 131300Z AUTO 20010KT 9999 FEW028 BKN042 BKN048 10/06 Q1008 TEMPO 25015G25KT SCT030TCU
  • 131230Z AUTO 20009KT 9999 FEW032 BKN042 BKN068 11/06 Q1008 TEMPO 25015G25KT SCT030TCU
  • 131200Z AUTO 21009KT 9999 SCT041 BKN048 BKN054 10/06 Q1009 TEMPO 25015G25KT SCT030TCU
  • 131130Z AUTO 21008KT 9999 FEW044 SCT050 OVC062 10/04 Q1009 TEMPO 25015G25KT SCT030TCU

TAF TAF LFBH
Valid from the 13 at 12:00 until the 14 at 12:00 UTC


131100Z 1312/1412 19010KT 9999 BKN040
BECMG 1313/1315 25015KT
PROB40
TEMPO 1313/1318 25015G25KT -SHRA SCT030TCU
TEMPO 1318/1321 3000 SHRA SCT015CB BKN020TCU
PROB40
TEMPO 1320/1321 27025G40KT 1500 +SHRA BKN015CB
BECMG 1321/1323 30015G25KT
BECMG 1402/1404 24005KT
TEMPO 1321/1409 3000 SHRA SCT020CB BKN030TCU
ATIS : +33 5 46 00 13 92



MET'MAP, your aeronautical weather chart ! - Copyright ORBIFLY December 2007 - Disclaimer

ORBIFLY MET'MAP TEAM :

Programming & Development : Alexandra Zaïnal
Concept & Development : Baudouin d'Aumeries
Co-Development & Prog : Marc-Olivier Méhu
Technical & hardware support : Manuel Goepfert

Contact : metmap@orbifly.com




SOURCES & CREDITS :

   NOAA